createdAt,value
2019-01-17T00:02:04.479Z,79.40
2019-01-17T00:04:44.156Z,79.28
2019-01-17T00:07:14.430Z,80.29
2019-01-17T00:10:01.406Z,80.43
2019-01-17T00:12:31.667Z,79.90
2019-01-17T00:15:01.936Z,80.09
2019-01-17T00:17:35.070Z,78.50
2019-01-17T00:20:07.143Z,78.54
2019-01-17T00:22:37.401Z,78.54
2019-01-17T00:25:18.791Z,78.78
2019-01-17T00:27:49.054Z,79.24
2019-01-17T00:30:22.085Z,78.89
2019-01-17T00:32:58.381Z,79.90
2019-01-17T00:35:45.082Z,80.25
2019-01-17T00:38:31.664Z,80.40
2019-01-17T00:41:04.972Z,80.19
2019-01-17T00:43:38.048Z,79.93
2019-01-17T00:46:14.227Z,80.30
2019-01-17T00:48:53.664Z,80.30
2019-01-17T00:51:23.927Z,81.56
2019-01-17T00:54:09.575Z,81.71
2019-01-17T00:56:45.637Z,82.65
2019-01-17T00:59:28.171Z,82.65
2019-01-17T01:02:04.498Z,82.97
2019-01-17T01:04:40.465Z,82.96
2019-01-17T01:07:27.153Z,82.75
2019-01-17T01:10:13.936Z,82.40
2019-01-17T01:12:47.308Z,81.90
2019-01-17T01:15:25.686Z,82.08
2019-01-17T01:18:11.170Z,82.35
2019-01-17T01:20:50.498Z,83.76
2019-01-17T01:23:26.940Z,84.36
2019-01-17T01:26:03.657Z,84.48
2019-01-17T01:28:33.969Z,84.74
2019-01-17T01:31:04.234Z,84.79
2019-01-17T01:33:40.669Z,84.31
2019-01-17T01:36:10.944Z,84.54
2019-01-17T01:38:43.911Z,84.50
2019-01-17T01:41:14.217Z,84.55
2019-01-17T01:43:47.452Z,84.75
2019-01-17T01:46:23.942Z,84.85
2019-01-17T01:49:03.550Z,85.48
2019-01-17T01:51:45.942Z,85.48
2019-01-17T01:54:14.573Z,85.58
2019-01-17T01:56:43.201Z,85.64
2019-01-17T01:59:11.962Z,85.74
2019-01-17T02:01:40.661Z,86.15
2019-01-17T02:04:09.300Z,85.79
2019-01-17T02:06:38.056Z,85.81
2019-01-17T02:09:08.665Z,85.81
2019-01-17T02:11:37.405Z,85.64
2019-01-17T02:14:07.195Z,85.03
2019-01-17T02:16:35.904Z,84.90
2019-01-17T02:19:04.804Z,84.94
2019-01-17T02:21:33.503Z,85.10
2019-01-17T02:24:02.215Z,85.10
2019-01-17T02:26:30.936Z,84.27
2019-01-17T02:28:59.628Z,83.08
2019-01-17T02:31:28.262Z,83.08
2019-01-17T02:33:56.957Z,83.25
2019-01-17T02:36:25.838Z,82.42
2019-01-17T02:38:54.578Z,82.40
2019-01-17T02:41:23.206Z,81.90
2019-01-17T02:43:52.072Z,81.26
2019-01-17T02:46:20.907Z,81.41
2019-01-17T02:48:49.627Z,80.54
2019-01-17T02:51:18.369Z,80.86
2019-01-17T02:53:46.995Z,80.41
2019-01-17T02:56:15.627Z,79.50
2019-01-17T02:58:44.373Z,79.32
2019-01-17T03:01:13.076Z,78.24
2019-01-17T03:03:41.680Z,77.59
2019-01-17T03:06:10.339Z,77.85
2019-01-17T03:08:38.998Z,78.75
2019-01-17T03:11:07.691Z,79.45
2019-01-17T03:13:36.398Z,78.96
2019-01-17T03:16:05.039Z,79.40
2019-01-17T03:18:33.737Z,79.77
2019-01-17T03:21:02.478Z,79.92
2019-01-17T03:23:31.116Z,79.20
2019-01-17T03:25:59.734Z,77.60
2019-01-17T03:28:28.478Z,77.11
2019-01-17T03:30:57.188Z,77.35
2019-01-17T03:33:25.841Z,77.43
2019-01-17T03:35:54.581Z,76.74
2019-01-17T03:38:23.275Z,77.37
2019-01-17T03:40:51.988Z,77.61
2019-01-17T03:43:20.667Z,76.55
2019-01-17T03:45:49.296Z,77.41
2019-01-17T03:48:17.988Z,78.21
2019-01-17T03:50:46.713Z,78.75
2019-01-17T03:53:15.349Z,79.90
2019-01-17T03:55:44.256Z,80.49
2019-01-17T03:58:12.927Z,80.36
2019-01-17T04:00:41.561Z,80.91
2019-01-17T04:03:10.201Z,81.68
2019-01-17T04:05:39.064Z,83.06
2019-01-17T04:08:07.689Z,81.38
2019-01-17T04:10:36.314Z,79.95
2019-01-17T04:13:05.233Z,81.72
2019-01-17T04:15:34.048Z,82.15
2019-01-17T04:18:03.057Z,83.73
2019-01-17T04:20:31.707Z,84.33
2019-01-17T04:23:00.413Z,84.83
2019-01-17T04:25:29.328Z,84.77
2019-01-17T04:27:57.965Z,84.20
2019-01-17T04:30:26.610Z,84.50
2019-01-17T04:32:55.270Z,84.65
2019-01-17T04:35:23.980Z,84.63
2019-01-17T04:37:52.623Z,84.63
2019-01-17T04:40:21.287Z,84.96
2019-01-17T04:42:50.000Z,84.53
2019-01-17T04:45:18.628Z,83.85
2019-01-17T04:47:47.389Z,83.75
2019-01-17T04:50:16.090Z,83.94
2019-01-17T04:52:44.715Z,84.42
2019-01-17T04:55:14.664Z,85.17
2019-01-17T04:57:43.288Z,86.14
2019-01-17T05:00:17.838Z,86.68
2019-01-17T05:02:46.535Z,86.93
2019-01-17T05:05:15.369Z,86.96
2019-01-17T05:07:44.173Z,87.07
2019-01-17T05:10:15.471Z,87.82
2019-01-17T05:12:44.111Z,87.80
2019-01-17T05:15:13.625Z,88.29
2019-01-17T05:17:42.366Z,88.03
2019-01-17T05:20:15.923Z,88.24
2019-01-17T05:22:44.550Z,88.51
2019-01-17T05:25:13.512Z,88.68
2019-01-17T05:27:42.144Z,89.04
2019-01-17T05:30:16.568Z,89.57
2019-01-17T05:32:45.334Z,90.55
2019-01-17T05:35:14.469Z,91.20
2019-01-17T05:37:43.313Z,91.15
2019-01-17T05:40:17.299Z,91.54
2019-01-17T05:42:46.101Z,92.05
2019-01-17T05:45:15.729Z,92.30
2019-01-17T05:47:44.405Z,92.34
2019-01-17T05:50:15.464Z,92.49
2019-01-17T05:52:44.262Z,92.88
2019-01-17T05:55:19.761Z,93.08
2019-01-17T05:57:43.666Z,93.15
2019-01-17T06:00:17.837Z,93.21
2019-01-17T06:02:46.659Z,93.95
2019-01-17T06:05:16.291Z,94.43
2019-01-17T06:07:45.237Z,94.45
2019-01-17T06:10:13.958Z,89.76
2019-01-17T06:12:42.603Z,88.76
2019-01-17T06:15:16.762Z,89.99
2019-01-17T06:17:45.377Z,88.79
2019-01-17T06:20:16.320Z,87.42
2019-01-17T06:22:44.984Z,86.80
2019-01-17T06:25:13.781Z,84.97
2019-01-17T06:27:42.483Z,83.03
2019-01-17T06:30:14.266Z,80.70
2019-01-17T06:32:43.763Z,80.35
2019-01-17T06:35:13.014Z,79.82
2019-01-17T06:37:41.900Z,78.35
2019-01-17T06:40:13.914Z,75.35
2019-01-17T06:42:42.812Z,69.64
2019-01-17T06:45:11.698Z,67.27
2019-01-17T06:47:40.323Z,65.00
2019-01-17T06:50:10.562Z,62.70
2019-01-17T06:52:39.307Z,61.48
2019-01-17T06:55:08.639Z,61.10
2019-01-17T06:57:37.345Z,60.92
2019-01-17T07:00:15.000Z,59.70
2019-01-17T07:02:44.097Z,58.60
2019-01-17T07:05:14.004Z,58.73
2019-01-17T07:07:42.785Z,57.73
2019-01-17T07:10:16.658Z,57.75
2019-01-17T07:12:46.219Z,59.72
2019-01-17T07:15:15.267Z,59.64
2019-01-17T07:17:43.927Z,58.47
2019-01-17T07:20:15.066Z,56.99
2019-01-17T07:22:44.036Z,55.66
2019-01-17T07:25:13.070Z,54.18
2019-01-17T07:27:41.735Z,54.18
2019-01-17T07:30:16.137Z,55.06
2019-01-17T07:32:44.768Z,54.79
2019-01-17T07:35:13.559Z,54.24
2019-01-17T07:37:42.895Z,53.91
2019-01-17T07:40:12.294Z,53.43
2019-01-17T07:42:41.019Z,52.63
2019-01-17T07:45:24.231Z,51.93
2019-01-17T07:47:52.922Z,51.94
2019-01-17T07:50:21.636Z,51.44
2019-01-17T07:52:50.296Z,51.27
2019-01-17T07:55:18.925Z,51.59
2019-01-17T07:57:47.559Z,51.68
2019-01-17T08:00:19.187Z,51.82
2019-01-17T08:02:47.810Z,53.33
2019-01-17T08:05:16.598Z,54.88
2019-01-17T08:07:45.228Z,56.88
2019-01-17T08:10:16.260Z,57.17
2019-01-17T08:12:45.061Z,57.88
2019-01-17T08:15:14.680Z,58.85
2019-01-17T08:17:43.403Z,58.65
2019-01-17T08:20:22.921Z,58.74
2019-01-17T08:22:51.717Z,60.59
2019-01-17T08:25:20.710Z,61.16
2019-01-17T08:27:49.481Z,62.40
2019-01-17T08:30:26.051Z,62.24
2019-01-17T08:32:54.712Z,61.99
2019-01-17T08:35:23.507Z,62.80
2019-01-17T08:37:52.138Z,63.27
2019-01-17T08:40:26.528Z,63.15
2019-01-17T08:42:58.512Z,62.61
2019-01-17T08:45:27.211Z,63.08
2019-01-17T08:47:56.033Z,61.73
2019-01-17T08:50:24.734Z,61.77
2019-01-17T08:52:53.392Z,62.22
2019-01-17T08:55:22.103Z,61.99
2019-01-17T08:57:50.803Z,61.12
2019-01-17T09:00:24.735Z,60.83
2019-01-17T09:02:53.508Z,61.21
2019-01-17T09:05:22.327Z,61.02
2019-01-17T09:07:50.960Z,60.22
2019-01-17T09:10:28.236Z,59.72
2019-01-17T09:12:56.857Z,60.51
2019-01-17T09:15:28.269Z,60.79
2019-01-17T09:17:57.035Z,61.70
2019-01-17T09:20:25.672Z,62.42
2019-01-17T09:22:54.313Z,63.36
2019-01-17T09:25:22.985Z,64.03
2019-01-17T09:27:51.647Z,64.87
2019-01-17T09:30:21.733Z,64.82
2019-01-17T09:32:50.370Z,64.98
2019-01-17T09:35:19.513Z,65.04
2019-01-17T09:37:48.221Z,65.37
2019-01-17T09:40:20.495Z,66.05
2019-01-17T09:42:49.202Z,65.01
2019-01-17T09:45:18.138Z,64.78
2019-01-17T09:47:46.784Z,64.54
2019-01-17T09:50:20.861Z,64.27
2019-01-17T09:52:49.775Z,64.46
2019-01-17T09:55:18.403Z,63.80
2019-01-17T09:57:47.227Z,63.89
2019-01-17T10:00:18.703Z,63.79
2019-01-17T10:02:47.326Z,64.07
2019-01-17T10:05:16.033Z,63.46
2019-01-17T10:07:44.792Z,63.81
2019-01-17T10:10:18.826Z,63.17
2019-01-17T10:12:47.547Z,63.21
2019-01-17T10:15:25.103Z,63.32
2019-01-17T10:18:24.049Z,62.76
2019-01-17T10:21:07.422Z,62.61
2019-01-17T10:23:50.892Z,61.74
2019-01-17T10:26:28.318Z,62.49
2019-01-17T10:29:08.614Z,61.44
2019-01-17T10:31:55.241Z,61.52
2019-01-17T10:34:38.898Z,61.28
2019-01-17T10:37:34.680Z,60.83
2019-01-17T10:40:28.549Z,61.07
2019-01-17T10:43:18.389Z,59.94
2019-01-17T10:46:01.901Z,60.19
2019-01-17T10:48:33.588Z,59.94
2019-01-17T10:51:22.146Z,59.03
2019-01-17T10:54:03.213Z,58.45
2019-01-17T10:56:41.313Z,57.97
2019-01-17T10:59:16.878Z,58.06
2019-01-17T11:01:51.254Z,57.51
2019-01-17T11:04:37.774Z,56.60
2019-01-17T11:07:15.354Z,56.92
2019-01-17T11:10:08.983Z,55.92
2019-01-17T11:12:57.093Z,55.67
2019-01-17T11:15:34.564Z,54.70
2019-01-17T11:18:30.405Z,54.91
2019-01-17T11:21:30.863Z,54.82
2019-01-17T11:24:19.172Z,54.53
2019-01-17T11:26:50.838Z,54.12
2019-01-17T11:29:28.012Z,54.85
2019-01-17T11:32:22.742Z,54.08
2019-01-17T11:35:15.443Z,54.35
2019-01-17T11:37:47.525Z,54.26
2019-01-17T11:40:24.986Z,53.79
2019-01-17T11:43:19.473Z,53.58
2019-01-17T11:46:10.574Z,53.25
2019-01-17T11:48:54.179Z,52.92
2019-01-17T11:51:34.021Z,53.26
2019-01-17T11:54:20.397Z,53.56
2019-01-17T11:57:12.790Z,53.21
2019-01-17T12:00:02.878Z,53.74
2019-01-17T12:02:39.256Z,53.86
2019-01-17T12:05:07.982Z,53.44
2019-01-17T12:07:36.608Z,53.65
2019-01-17T12:10:06.835Z,53.91
2019-01-17T12:12:35.985Z,54.03
2019-01-17T12:15:06.996Z,53.72
2019-01-17T12:17:35.719Z,53.62
2019-01-17T12:20:07.061Z,54.10
2019-01-17T12:22:35.689Z,53.95
2019-01-17T12:25:05.286Z,53.59
2019-01-17T12:27:34.029Z,53.09
2019-01-17T12:30:02.652Z,53.16
2019-01-17T12:32:31.394Z,53.31
2019-01-17T12:35:00.407Z,53.66
2019-01-17T12:37:29.123Z,53.04
2019-01-17T12:39:57.819Z,53.13
2019-01-17T12:42:26.501Z,52.92
2019-01-17T12:44:55.216Z,53.35
2019-01-17T12:47:23.926Z,53.11
2019-01-17T12:49:52.678Z,53.33
2019-01-17T12:52:21.324Z,53.40
2019-01-17T12:54:50.064Z,53.45
2019-01-17T12:57:18.836Z,53.07
2019-01-17T12:59:47.475Z,53.09
2019-01-17T13:02:16.179Z,52.83
2019-01-17T13:04:45.064Z,52.85
2019-01-17T13:07:13.773Z,52.72
2019-01-17T13:09:42.414Z,52.51
2019-01-17T13:12:11.187Z,52.09
2019-01-17T13:14:39.983Z,52.57
2019-01-17T13:17:08.651Z,52.79
2019-01-17T13:19:37.322Z,52.78
2019-01-17T13:22:06.262Z,52.45
2019-01-17T13:24:34.971Z,52.19
2019-01-17T13:27:03.749Z,51.94
2019-01-17T13:29:32.376Z,52.50
2019-01-17T13:32:01.057Z,52.48
2019-01-17T13:34:29.984Z,51.25
2019-01-17T13:36:58.607Z,51.19
2019-01-17T13:39:27.322Z,51.40
2019-01-17T13:41:56.009Z,53.14
2019-01-17T13:44:24.736Z,53.65
2019-01-17T13:46:53.461Z,53.37
2019-01-17T13:49:22.205Z,52.92
2019-01-17T13:51:50.829Z,53.18
2019-01-17T13:54:19.472Z,53.12
2019-01-17T13:56:48.326Z,53.39
2019-01-17T13:59:17.033Z,53.69
2019-01-17T14:01:45.688Z,53.44
2019-01-17T14:04:14.615Z,53.93
2019-01-17T14:06:43.241Z,54.06
2019-01-17T14:09:11.947Z,53.58
2019-01-17T14:11:40.631Z,53.52
2019-01-17T14:14:09.235Z,53.75
2019-01-17T14:16:37.930Z,54.18
2019-01-17T14:19:06.693Z,54.08
2019-01-17T14:21:35.397Z,54.28
2019-01-17T14:24:04.053Z,53.94
2019-01-17T14:26:32.915Z,54.30
2019-01-17T14:29:01.643Z,55.02
2019-01-17T14:31:30.351Z,54.51
2019-01-17T14:33:59.029Z,54.32
2019-01-17T14:36:27.734Z,54.43
2019-01-17T14:38:56.441Z,54.38
2019-01-17T14:41:25.120Z,54.93
2019-01-17T14:43:53.754Z,56.13
2019-01-17T14:46:22.458Z,55.76
2019-01-17T14:48:51.249Z,55.75
2019-01-17T14:51:19.871Z,56.51
2019-01-17T14:53:48.505Z,57.37
2019-01-17T14:56:17.256Z,58.18
2019-01-17T14:58:45.882Z,58.50
2019-01-17T15:01:14.582Z,58.92
2019-01-17T15:03:43.323Z,59.38
2019-01-17T15:06:11.952Z,59.87
2019-01-17T15:08:40.577Z,60.55
2019-01-17T15:11:09.336Z,61.05
2019-01-17T15:13:38.025Z,61.46
2019-01-17T15:16:06.653Z,61.52
2019-01-17T15:18:35.330Z,61.94
2019-01-17T15:21:04.039Z,62.25
2019-01-17T15:23:32.724Z,62.71
2019-01-17T15:26:01.396Z,63.41
2019-01-17T15:28:30.085Z,63.92
2019-01-17T15:30:58.834Z,63.87
2019-01-17T15:33:27.566Z,64.51
2019-01-17T15:35:56.208Z,64.59
2019-01-17T15:38:24.899Z,64.83
2019-01-17T15:40:53.583Z,65.22
2019-01-17T15:43:31.317Z,65.60
2019-01-17T15:46:00.228Z,66.83
2019-01-17T15:48:28.961Z,67.25
2019-01-17T15:50:57.695Z,68.16
2019-01-17T15:53:26.293Z,68.59
2019-01-17T15:55:55.052Z,68.33
2019-01-17T15:58:23.767Z,69.01
2019-01-17T16:00:52.393Z,69.10
2019-01-17T16:03:21.151Z,70.04
2019-01-17T16:05:49.848Z,70.46
2019-01-17T16:08:18.559Z,71.06
2019-01-17T16:10:47.235Z,71.28
2019-01-17T16:13:15.933Z,71.88
2019-01-17T16:15:44.549Z,73.03
2019-01-17T16:18:13.437Z,73.37
2019-01-17T16:20:42.147Z,73.91
2019-01-17T16:23:10.899Z,73.68
2019-01-17T16:25:39.826Z,73.65
2019-01-17T16:28:08.449Z,74.40
2019-01-17T16:30:37.153Z,74.05
2019-01-17T16:33:05.892Z,74.03
2019-01-17T16:35:34.522Z,73.88
2019-01-17T16:38:03.158Z,74.15
2019-01-17T16:40:31.886Z,74.37
2019-01-17T16:43:00.514Z,74.95
2019-01-17T16:45:35.213Z,75.78
2019-01-17T16:47:59.810Z,75.83
2019-01-17T16:50:28.614Z,75.68
2019-01-17T16:52:57.247Z,75.43
2019-01-17T16:55:26.186Z,75.64
2019-01-17T16:57:54.910Z,76.07
2019-01-17T17:00:38.483Z,76.51
2019-01-17T17:03:07.104Z,76.42
2019-01-17T17:05:35.809Z,76.44
2019-01-17T17:08:05.091Z,77.22
2019-01-17T17:10:33.920Z,77.22
2019-01-17T17:13:02.557Z,77.20
2019-01-17T17:15:32.395Z,76.71
2019-01-17T17:18:01.093Z,76.87
2019-01-17T17:20:30.005Z,77.64
2019-01-17T17:22:58.712Z,78.00
2019-01-17T17:25:27.406Z,78.34
2019-01-17T17:27:56.117Z,78.87
2019-01-17T17:30:27.099Z,78.94
2019-01-17T17:32:55.730Z,79.18
2019-01-17T17:35:24.452Z,79.09
2019-01-17T17:37:53.428Z,79.60
2019-01-17T17:40:24.532Z,79.92
2019-01-17T17:42:53.236Z,80.38
2019-01-17T17:45:21.914Z,80.49
2019-01-17T17:47:50.533Z,80.93
2019-01-17T17:50:21.341Z,81.74
2019-01-17T17:52:50.218Z,81.58
2019-01-17T17:55:19.851Z,81.49
2019-01-17T17:57:48.693Z,81.21
2019-01-17T18:00:27.109Z,81.90
2019-01-17T18:02:56.285Z,81.88
2019-01-17T18:05:24.909Z,81.45
2019-01-17T18:07:53.686Z,81.66
2019-01-17T18:10:22.378Z,81.84
2019-01-17T18:12:51.082Z,81.60
2019-01-17T18:15:20.026Z,82.62
2019-01-17T18:17:48.927Z,83.21
2019-01-17T18:20:18.836Z,82.78
2019-01-17T18:22:47.569Z,82.90
2019-01-17T18:25:16.204Z,82.96
2019-01-17T18:27:44.895Z,82.82
2019-01-17T18:30:27.096Z,82.45
2019-01-17T18:32:55.718Z,83.37
2019-01-17T18:35:24.466Z,84.02
2019-01-17T18:37:53.403Z,84.48
2019-01-17T18:40:22.430Z,84.86
2019-01-17T18:42:51.071Z,85.10
2019-01-17T18:45:22.422Z,85.81
2019-01-17T18:47:51.379Z,86.09
2019-01-17T18:50:25.542Z,85.74
2019-01-17T18:52:54.410Z,86.01
2019-01-17T18:55:23.035Z,84.64
2019-01-17T18:57:51.666Z,83.94
2019-01-17T19:00:27.307Z,83.33
2019-01-17T19:02:56.340Z,82.77
2019-01-17T19:05:25.064Z,83.78
2019-01-17T19:07:53.748Z,83.70
2019-01-17T19:10:22.753Z,84.20
2019-01-17T19:12:51.755Z,84.42
2019-01-17T19:15:23.058Z,84.65
2019-01-17T19:17:51.788Z,85.50
2019-01-17T19:20:21.299Z,86.60
2019-01-17T19:22:50.010Z,86.68
2019-01-17T19:25:19.130Z,87.38
2019-01-17T19:27:47.774Z,87.99
2019-01-17T19:30:24.433Z,88.88
2019-01-17T19:32:53.290Z,88.78
2019-01-17T19:35:21.930Z,88.96
2019-01-17T19:37:50.620Z,89.19
2019-01-17T19:40:27.447Z,89.43
2019-01-17T19:42:56.176Z,89.22
2019-01-17T19:45:24.802Z,90.15
2019-01-17T19:47:53.507Z,90.52
2019-01-17T19:50:27.991Z,89.64
2019-01-17T19:52:56.711Z,89.04
2019-01-17T19:55:25.465Z,88.84
2019-01-17T19:57:54.090Z,88.88
2019-01-17T20:00:23.015Z,89.10
2019-01-17T20:02:52.070Z,89.57
2019-01-17T20:05:26.561Z,89.73
2019-01-17T20:07:55.271Z,89.88
2019-01-17T20:10:32.525Z,89.88
2019-01-17T20:13:01.252Z,89.85
2019-01-17T20:15:30.178Z,89.93
2019-01-17T20:17:58.953Z,89.95
2019-01-17T20:20:31.791Z,90.25
2019-01-17T20:22:58.050Z,90.05
2019-01-17T20:25:26.694Z,90.69
2019-01-17T20:27:55.684Z,90.69
2019-01-17T20:30:27.069Z,90.48
2019-01-17T20:32:57.313Z,90.48
2019-01-17T20:35:26.202Z,90.59
2019-01-17T20:37:54.868Z,90.32
2019-01-17T20:40:24.809Z,90.03
2019-01-17T20:42:53.804Z,90.74
2019-01-17T20:45:22.736Z,90.87
2019-01-17T20:47:51.583Z,90.80
2019-01-17T20:50:23.056Z,90.87
2019-01-17T20:52:51.695Z,91.56
2019-01-17T20:55:20.337Z,91.76
2019-01-17T20:57:50.586Z,92.93
2019-01-17T21:00:24.779Z,92.23
2019-01-17T21:02:53.419Z,92.13
2019-01-17T21:05:22.465Z,92.28
2019-01-17T21:07:51.103Z,92.14
2019-01-17T21:10:20.218Z,92.64
2019-01-17T21:12:49.190Z,92.49
2019-01-17T21:15:17.828Z,92.66
2019-01-17T21:17:46.480Z,93.09
2019-01-17T21:20:15.675Z,92.85
2019-01-17T21:22:44.298Z,92.67
2019-01-17T21:25:19.987Z,92.92
2019-01-17T21:27:48.620Z,93.12
2019-01-17T21:30:25.414Z,92.34
2019-01-17T21:32:54.298Z,92.34
2019-01-17T21:35:23.307Z,91.23
2019-01-17T21:37:54.777Z,91.17
2019-01-17T21:40:24.655Z,90.14
2019-01-17T21:42:53.353Z,91.04
2019-01-17T21:45:22.105Z,91.35
2019-01-17T21:47:50.815Z,92.23
2019-01-17T21:50:31.393Z,92.73
2019-01-17T21:53:00.047Z,93.34
2019-01-17T21:55:28.763Z,93.34
2019-01-17T21:57:57.673Z,93.49
2019-01-17T22:00:28.129Z,93.49
2019-01-17T22:02:56.968Z,93.60
2019-01-17T22:05:25.643Z,92.96
2019-01-17T22:07:54.365Z,92.46
2019-01-17T22:10:23.205Z,92.70
2019-01-17T22:12:52.030Z,92.79
2019-01-17T22:15:32.990Z,92.84
2019-01-17T22:18:01.629Z,92.61
2019-01-17T22:20:30.331Z,92.78
2019-01-17T22:22:59.104Z,93.33
2019-01-17T22:25:27.719Z,94.32
2019-01-17T22:27:56.365Z,95.12
2019-01-17T22:30:29.758Z,95.22
2019-01-17T22:32:58.562Z,95.11
2019-01-17T22:35:27.210Z,95.38
2019-01-17T22:37:55.852Z,95.91
2019-01-17T22:40:24.589Z,96.44
2019-01-17T22:42:53.300Z,96.75
2019-01-17T22:45:24.873Z,96.31
2019-01-17T22:47:53.521Z,96.00
2019-01-17T22:50:22.223Z,96.58
2019-01-17T22:52:51.613Z,97.08
2019-01-17T22:55:20.327Z,97.66
2019-01-17T22:57:49.182Z,98.02
2019-01-17T23:00:31.195Z,98.25
2019-01-17T23:02:59.843Z,97.55
2019-01-17T23:05:28.547Z,96.36
2019-01-17T23:07:57.293Z,96.74
2019-01-17T23:10:25.943Z,96.92
2019-01-17T23:12:54.664Z,96.59
2019-01-17T23:15:23.588Z,97.88
2019-01-17T23:17:52.301Z,97.44
2019-01-17T23:20:20.941Z,96.60
2019-01-17T23:22:49.781Z,95.79
2019-01-17T23:25:18.425Z,95.57
2019-01-17T23:27:47.110Z,95.74
2019-01-17T23:30:15.845Z,95.26
2019-01-17T23:32:44.548Z,94.86
2019-01-17T23:35:13.181Z,94.39
2019-01-17T23:37:58.013Z,94.36
2019-01-17T23:40:26.692Z,94.10
2019-01-17T23:42:55.447Z,93.93
2019-01-17T23:45:24.168Z,94.42
2019-01-17T23:47:52.808Z,95.02
2019-01-17T23:50:21.481Z,94.50
2019-01-17T23:52:50.199Z,94.27
2019-01-17T23:55:18.842Z,94.14
2019-01-17T23:57:47.530Z,94.59
